sensor_id;sensor_type;location;lat;lon;timestamp;P1;durP1;ratioP1;P2;durP2;ratioP2
16352;SDS011;8286;51.274;9.542;2023-04-23T00:01:12;4.30;;;2.77;;
16352;SDS011;8286;51.274;9.542;2023-04-23T00:03:41;3.33;;;3.03;;
16352;SDS011;8286;51.274;9.542;2023-04-23T00:06:08;4.17;;;3.57;;
16352;SDS011;8286;51.274;9.542;2023-04-23T00:08:35;3.53;;;3.20;;
16352;SDS011;8286;51.274;9.542;2023-04-23T00:11:05;4.67;;;3.43;;
16352;SDS011;8286;51.274;9.542;2023-04-23T00:13:33;6.97;;;3.53;;
16352;SDS011;8286;51.274;9.542;2023-04-23T00:16:00;5.07;;;4.47;;
16352;SDS011;8286;51.274;9.542;2023-04-23T00:18:27;6.33;;;4.33;;
16352;SDS011;8286;51.274;9.542;2023-04-23T00:20:54;4.50;;;3.60;;
16352;SDS011;8286;51.274;9.542;2023-04-23T00:23:21;7.93;;;3.70;;
16352;SDS011;8286;51.274;9.542;2023-04-23T00:25:47;5.20;;;3.87;;
16352;SDS011;8286;51.274;9.542;2023-04-23T00:28:16;5.33;;;3.80;;
16352;SDS011;8286;51.274;9.542;2023-04-23T00:30:42;3.70;;;3.40;;
16352;SDS011;8286;51.274;9.542;2023-04-23T00:33:09;4.90;;;4.33;;
16352;SDS011;8286;51.274;9.542;2023-04-23T00:35:35;5.80;;;4.67;;
16352;SDS011;8286;51.274;9.542;2023-04-23T00:38:02;5.53;;;4.30;;
16352;SDS011;8286;51.274;9.542;2023-04-23T00:40:28;4.63;;;3.90;;
16352;SDS011;8286;51.274;9.542;2023-04-23T00:42:55;4.90;;;4.00;;
16352;SDS011;8286;51.274;9.542;2023-04-23T00:45:24;6.33;;;3.90;;
16352;SDS011;8286;51.274;9.542;2023-04-23T00:47:50;6.57;;;4.20;;
16352;SDS011;8286;51.274;9.542;2023-04-23T00:50:18;6.57;;;4.73;;
16352;SDS011;8286;51.274;9.542;2023-04-23T00:52:45;6.50;;;4.60;;
16352;SDS011;8286;51.274;9.542;2023-04-23T00:55:12;5.17;;;4.43;;
16352;SDS011;8286;51.274;9.542;2023-04-23T00:57:38;6.80;;;4.57;;
16352;SDS011;8286;51.274;9.542;2023-04-23T01:00:06;6.90;;;4.23;;
16352;SDS011;8286;51.274;9.542;2023-04-23T01:02:35;5.30;;;4.60;;
16352;SDS011;8286;51.274;9.542;2023-04-23T01:05:02;6.33;;;4.60;;
16352;SDS011;8286;51.274;9.542;2023-04-23T01:07:30;6.80;;;4.70;;
16352;SDS011;8286;51.274;9.542;2023-04-23T01:09:59;5.77;;;4.40;;
16352;SDS011;8286;51.274;9.542;2023-04-23T01:12:26;5.67;;;4.53;;
16352;SDS011;8286;51.274;9.542;2023-04-23T01:14:52;5.87;;;4.57;;
16352;SDS011;8286;51.274;9.542;2023-04-23T01:17:20;8.43;;;4.30;;
16352;SDS011;8286;51.274;9.542;2023-04-23T01:19:48;11.23;;;4.93;;
16352;SDS011;8286;51.274;9.542;2023-04-23T01:22:16;7.03;;;5.10;;
16352;SDS011;8286;51.274;9.542;2023-04-23T01:24:43;7.53;;;4.83;;
16352;SDS011;8286;51.274;9.542;2023-04-23T01:27:10;5.93;;;4.67;;
16352;SDS011;8286;51.274;9.542;2023-04-23T01:29:37;5.40;;;4.70;;
16352;SDS011;8286;51.274;9.542;2023-04-23T01:32:04;5.07;;;4.57;;
16352;SDS011;8286;51.274;9.542;2023-04-23T01:34:31;5.90;;;4.77;;
16352;SDS011;8286;51.274;9.542;2023-04-23T01:36:58;6.33;;;5.00;;
16352;SDS011;8286;51.274;9.542;2023-04-23T01:39:26;7.00;;;5.37;;
16352;SDS011;8286;51.274;9.542;2023-04-23T01:41:52;6.07;;;5.07;;
16352;SDS011;8286;51.274;9.542;2023-04-23T01:44:19;6.57;;;4.93;;
16352;SDS011;8286;51.274;9.542;2023-04-23T01:46:45;6.23;;;4.67;;
16352;SDS011;8286;51.274;9.542;2023-04-23T01:49:12;8.30;;;5.80;;
16352;SDS011;8286;51.274;9.542;2023-04-23T01:51:39;6.63;;;5.60;;
16352;SDS011;8286;51.274;9.542;2023-04-23T01:54:05;8.20;;;5.10;;
16352;SDS011;8286;51.274;9.542;2023-04-23T01:56:33;5.97;;;5.17;;
16352;SDS011;8286;51.274;9.542;2023-04-23T01:59:00;8.23;;;5.90;;
16352;SDS011;8286;51.274;9.542;2023-04-23T02:01:39;5.93;;;5.10;;
16352;SDS011;8286;51.274;9.542;2023-04-23T02:04:07;7.07;;;5.37;;
16352;SDS011;8286;51.274;9.542;2023-04-23T02:06:33;5.60;;;4.63;;
16352;SDS011;8286;51.274;9.542;2023-04-23T02:09:00;8.67;;;5.43;;
16352;SDS011;8286;51.274;9.542;2023-04-23T02:11:26;8.13;;;5.60;;
16352;SDS011;8286;51.274;9.542;2023-04-23T02:13:54;8.10;;;5.20;;
16352;SDS011;8286;51.274;9.542;2023-04-23T02:16:20;6.77;;;6.00;;
16352;SDS011;8286;51.274;9.542;2023-04-23T02:18:48;8.60;;;5.50;;
16352;SDS011;8286;51.274;9.542;2023-04-23T02:21:15;8.07;;;5.00;;
16352;SDS011;8286;51.274;9.542;2023-04-23T02:23:42;7.07;;;5.33;;
16352;SDS011;8286;51.274;9.542;2023-04-23T02:26:08;6.57;;;5.20;;
16352;SDS011;8286;51.274;9.542;2023-04-23T02:28:35;7.70;;;5.73;;
16352;SDS011;8286;51.274;9.542;2023-04-23T02:31:03;7.33;;;5.50;;
16352;SDS011;8286;51.274;9.542;2023-04-23T02:33:30;7.23;;;5.37;;
16352;SDS011;8286;51.274;9.542;2023-04-23T02:35:57;6.77;;;5.23;;
16352;SDS011;8286;51.274;9.542;2023-04-23T02:38:23;6.97;;;5.97;;
16352;SDS011;8286;51.274;9.542;2023-04-23T02:40:50;8.90;;;5.80;;
16352;SDS011;8286;51.274;9.542;2023-04-23T02:43:16;7.83;;;5.40;;
16352;SDS011;8286;51.274;9.542;2023-04-23T02:45:43;6.73;;;5.17;;
16352;SDS011;8286;51.274;9.542;2023-04-23T02:48:11;6.57;;;5.70;;
16352;SDS011;8286;51.274;9.542;2023-04-23T02:50:37;8.60;;;5.50;;
16352;SDS011;8286;51.274;9.542;2023-04-23T02:53:04;7.77;;;5.33;;
16352;SDS011;8286;51.274;9.542;2023-04-23T02:55:30;9.73;;;5.80;;
16352;SDS011;8286;51.274;9.542;2023-04-23T02:57:57;9.33;;;6.40;;
16352;SDS011;8286;51.274;9.542;2023-04-23T03:00:24;9.30;;;6.60;;
16352;SDS011;8286;51.274;9.542;2023-04-23T03:02:50;11.33;;;7.20;;
16352;SDS011;8286;51.274;9.542;2023-04-23T03:05:18;9.87;;;7.37;;
16352;SDS011;8286;51.274;9.542;2023-04-23T03:07:45;11.50;;;6.50;;
16352;SDS011;8286;51.274;9.542;2023-04-23T03:10:11;12.90;;;7.00;;
16352;SDS011;8286;51.274;9.542;2023-04-23T03:12:38;10.63;;;6.90;;
16352;SDS011;8286;51.274;9.542;2023-04-23T03:15:05;9.47;;;6.90;;
16352;SDS011;8286;51.274;9.542;2023-04-23T03:17:32;7.57;;;6.13;;
16352;SDS011;8286;51.274;9.542;2023-04-23T03:19:58;7.70;;;5.43;;
16352;SDS011;8286;51.274;9.542;2023-04-23T03:22:26;8.10;;;5.73;;
16352;SDS011;8286;51.274;9.542;2023-04-23T03:24:53;6.60;;;4.87;;
16352;SDS011;8286;51.274;9.542;2023-04-23T03:27:19;7.23;;;4.67;;
16352;SDS011;8286;51.274;9.542;2023-04-23T03:29:46;5.23;;;4.00;;
16352;SDS011;8286;51.274;9.542;2023-04-23T03:32:12;4.33;;;3.40;;
16352;SDS011;8286;51.274;9.542;2023-04-23T03:34:39;4.20;;;3.60;;
16352;SDS011;8286;51.274;9.542;2023-04-23T03:37:05;3.17;;;2.93;;
16352;SDS011;8286;51.274;9.542;2023-04-23T03:39:33;5.17;;;3.53;;
16352;SDS011;8286;51.274;9.542;2023-04-23T03:41:59;5.00;;;3.40;;
16352;SDS011;8286;51.274;9.542;2023-04-23T03:44:26;4.20;;;3.60;;
16352;SDS011;8286;51.274;9.542;2023-04-23T03:46:52;4.47;;;3.27;;
16352;SDS011;8286;51.274;9.542;2023-04-23T03:49:19;3.97;;;3.53;;
16352;SDS011;8286;51.274;9.542;2023-04-23T03:51:45;4.10;;;3.70;;
16352;SDS011;8286;51.274;9.542;2023-04-23T03:54:12;8.23;;;4.27;;
16352;SDS011;8286;51.274;9.542;2023-04-23T03:56:40;4.27;;;3.87;;
16352;SDS011;8286;51.274;9.542;2023-04-23T03:59:06;4.33;;;3.90;;
16352;SDS011;8286;51.274;9.542;2023-04-23T04:01:33;5.43;;;4.40;;
16352;SDS011;8286;51.274;9.542;2023-04-23T04:04:00;5.20;;;4.23;;
16352;SDS011;8286;51.274;9.542;2023-04-23T04:06:26;5.23;;;4.63;;
16352;SDS011;8286;51.274;9.542;2023-04-23T04:08:53;6.00;;;4.60;;
16352;SDS011;8286;51.274;9.542;2023-04-23T04:11:19;5.47;;;4.30;;
16352;SDS011;8286;51.274;9.542;2023-04-23T04:13:47;7.10;;;4.57;;
16352;SDS011;8286;51.274;9.542;2023-04-23T04:16:14;6.97;;;4.57;;
16352;SDS011;8286;51.274;9.542;2023-04-23T04:18:40;5.37;;;4.37;;
16352;SDS011;8286;51.274;9.542;2023-04-23T04:21:07;5.10;;;4.57;;
16352;SDS011;8286;51.274;9.542;2023-04-23T04:23:33;6.57;;;4.83;;
16352;SDS011;8286;51.274;9.542;2023-04-23T04:26:00;5.73;;;4.63;;
16352;SDS011;8286;51.274;9.542;2023-04-23T04:28:27;5.43;;;4.50;;
16352;SDS011;8286;51.274;9.542;2023-04-23T04:30:55;6.03;;;4.73;;
16352;SDS011;8286;51.274;9.542;2023-04-23T04:33:22;6.40;;;4.57;;
16352;SDS011;8286;51.274;9.542;2023-04-23T04:35:49;5.90;;;4.20;;
16352;SDS011;8286;51.274;9.542;2023-04-23T04:38:16;4.90;;;4.20;;
16352;SDS011;8286;51.274;9.542;2023-04-23T04:40:42;4.93;;;4.27;;
16352;SDS011;8286;51.274;9.542;2023-04-23T04:43:09;4.30;;;3.90;;
16352;SDS011;8286;51.274;9.542;2023-04-23T04:45:36;4.27;;;3.87;;
16352;SDS011;8286;51.274;9.542;2023-04-23T04:48:04;4.43;;;3.93;;
16352;SDS011;8286;51.274;9.542;2023-04-23T04:50:30;7.43;;;4.60;;
16352;SDS011;8286;51.274;9.542;2023-04-23T04:52:57;4.73;;;4.20;;
16352;SDS011;8286;51.274;9.542;2023-04-23T04:55:23;4.40;;;3.90;;
16352;SDS011;8286;51.274;9.542;2023-04-23T04:57:51;4.70;;;4.03;;
16352;SDS011;8286;51.274;9.542;2023-04-23T05:00:19;6.53;;;4.20;;
16352;SDS011;8286;51.274;9.542;2023-04-23T05:02:50;5.47;;;4.27;;
16352;SDS011;8286;51.274;9.542;2023-04-23T05:05:18;3.80;;;3.50;;
16352;SDS011;8286;51.274;9.542;2023-04-23T05:07:46;4.43;;;4.03;;
16352;SDS011;8286;51.274;9.542;2023-04-23T05:10:13;4.80;;;4.13;;
16352;SDS011;8286;51.274;9.542;2023-04-23T05:12:40;6.03;;;4.00;;
16352;SDS011;8286;51.274;9.542;2023-04-23T05:15:07;6.57;;;4.40;;
16352;SDS011;8286;51.274;9.542;2023-04-23T05:17:34;6.67;;;4.47;;
16352;SDS011;8286;51.274;9.542;2023-04-23T05:20:01;4.90;;;4.03;;
16352;SDS011;8286;51.274;9.542;2023-04-23T05:22:30;4.87;;;4.10;;
16352;SDS011;8286;51.274;9.542;2023-04-23T05:24:56;5.40;;;4.87;;
16352;SDS011;8286;51.274;9.542;2023-04-23T05:27:23;5.10;;;4.60;;
16352;SDS011;8286;51.274;9.542;2023-04-23T05:29:49;6.23;;;4.83;;
16352;SDS011;8286;51.274;9.542;2023-04-23T05:32:16;5.10;;;4.30;;
16352;SDS011;8286;51.274;9.542;2023-04-23T05:34:42;4.60;;;4.20;;
16352;SDS011;8286;51.274;9.542;2023-04-23T05:37:09;6.03;;;4.40;;
16352;SDS011;8286;51.274;9.542;2023-04-23T05:39:37;6.03;;;4.77;;
16352;SDS011;8286;51.274;9.542;2023-04-23T05:42:04;6.97;;;4.10;;
16352;SDS011;8286;51.274;9.542;2023-04-23T05:44:30;5.57;;;5.00;;
16352;SDS011;8286;51.274;9.542;2023-04-23T05:46:57;7.23;;;4.67;;
16352;SDS011;8286;51.274;9.542;2023-04-23T05:49:23;6.90;;;5.27;;
16352;SDS011;8286;51.274;9.542;2023-04-23T05:51:51;5.50;;;4.67;;
16352;SDS011;8286;51.274;9.542;2023-04-23T05:54:17;6.00;;;5.00;;
16352;SDS011;8286;51.274;9.542;2023-04-23T05:56:45;7.63;;;5.50;;
16352;SDS011;8286;51.274;9.542;2023-04-23T05:59:12;6.17;;;5.13;;
16352;SDS011;8286;51.274;9.542;2023-04-23T06:01:38;7.50;;;5.20;;
16352;SDS011;8286;51.274;9.542;2023-04-23T06:04:06;6.60;;;5.03;;
16352;SDS011;8286;51.274;9.542;2023-04-23T06:06:32;6.13;;;4.80;;
16352;SDS011;8286;51.274;9.542;2023-04-23T06:08:59;7.10;;;5.13;;
16352;SDS011;8286;51.274;9.542;2023-04-23T06:11:25;6.53;;;5.50;;
16352;SDS011;8286;51.274;9.542;2023-04-23T06:13:54;8.10;;;5.43;;
16352;SDS011;8286;51.274;9.542;2023-04-23T06:16:20;7.43;;;5.37;;
16352;SDS011;8286;51.274;9.542;2023-04-23T06:18:48;7.37;;;5.33;;
16352;SDS011;8286;51.274;9.542;2023-04-23T06:21:14;6.77;;;5.07;;
16352;SDS011;8286;51.274;9.542;2023-04-23T06:23:41;5.43;;;4.30;;
16352;SDS011;8286;51.274;9.542;2023-04-23T06:26:07;5.50;;;4.43;;
16352;SDS011;8286;51.274;9.542;2023-04-23T06:28:34;4.35;;;3.95;;
16352;SDS011;8286;51.274;9.542;2023-04-23T06:31:01;4.07;;;3.67;;
16352;SDS011;8286;51.274;9.542;2023-04-23T06:33:29;5.97;;;4.05;;
16352;SDS011;8286;51.274;9.542;2023-04-23T06:35:56;5.32;;;4.82;;
16352;SDS011;8286;51.274;9.542;2023-04-23T06:38:22;5.10;;;4.10;;
16352;SDS011;8286;51.274;9.542;2023-04-23T06:40:49;4.78;;;4.20;;
16352;SDS011;8286;51.274;9.542;2023-04-23T06:43:15;5.07;;;3.83;;
16352;SDS011;8286;51.274;9.542;2023-04-23T06:45:42;4.40;;;4.00;;
16352;SDS011;8286;51.274;9.542;2023-04-23T06:48:10;4.82;;;4.07;;
16352;SDS011;8286;51.274;9.542;2023-04-23T06:50:36;4.63;;;4.22;;
16352;SDS011;8286;51.274;9.542;2023-04-23T06:53:03;4.57;;;4.00;;
16352;SDS011;8286;51.274;9.542;2023-04-23T06:55:30;4.68;;;4.28;;
16352;SDS011;8286;51.274;9.542;2023-04-23T06:57:56;5.53;;;4.90;;
16352;SDS011;8286;51.274;9.542;2023-04-23T07:00:23;5.53;;;4.97;;
16352;SDS011;8286;51.274;9.542;2023-04-23T07:02:50;5.07;;;4.57;;
16352;SDS011;8286;51.274;9.542;2023-04-23T07:05:18;5.65;;;4.78;;
16352;SDS011;8286;51.274;9.542;2023-04-23T07:07:45;4.90;;;4.50;;
16352;SDS011;8286;51.274;9.542;2023-04-23T07:10:11;4.85;;;4.40;;
16352;SDS011;8286;51.274;9.542;2023-04-23T07:12:38;5.35;;;4.13;;
16352;SDS011;8286;51.274;9.542;2023-04-23T07:15:05;6.20;;;4.50;;
16352;SDS011;8286;51.274;9.542;2023-04-23T07:17:33;5.47;;;4.97;;
16352;SDS011;8286;51.274;9.542;2023-04-23T07:20:00;5.22;;;4.80;;
16352;SDS011;8286;51.274;9.542;2023-04-23T07:22:31;6.45;;;5.40;;
16352;SDS011;8286;51.274;9.542;2023-04-23T07:24:58;7.10;;;5.78;;
16352;SDS011;8286;51.274;9.542;2023-04-23T07:27:25;6.25;;;5.18;;
16352;SDS011;8286;51.274;9.542;2023-04-23T07:29:51;6.95;;;5.38;;
16352;SDS011;8286;51.274;9.542;2023-04-23T07:32:18;5.93;;;5.18;;
16352;SDS011;8286;51.274;9.542;2023-04-23T07:34:47;6.65;;;5.97;;
16352;SDS011;8286;51.274;9.542;2023-04-23T07:37:13;6.63;;;5.72;;
16352;SDS011;8286;51.274;9.542;2023-04-23T07:39:42;6.05;;;5.45;;
16352;SDS011;8286;51.274;9.542;2023-04-23T07:42:08;5.75;;;5.18;;
16352;SDS011;8286;51.274;9.542;2023-04-23T07:44:35;6.65;;;5.18;;
16352;SDS011;8286;51.274;9.542;2023-04-23T07:47:01;5.03;;;4.50;;
16352;SDS011;8286;51.274;9.542;2023-04-23T07:49:28;4.82;;;4.28;;
16352;SDS011;8286;51.274;9.542;2023-04-23T07:51:55;6.40;;;4.70;;
16352;SDS011;8286;51.274;9.542;2023-04-23T07:54:21;4.13;;;3.83;;
16352;SDS011;8286;51.274;9.542;2023-04-23T07:56:49;4.45;;;4.05;;
16352;SDS011;8286;51.274;9.542;2023-04-23T07:59:16;4.53;;;4.22;;
16352;SDS011;8286;51.274;9.542;2023-04-23T08:01:42;4.85;;;4.45;;
16352;SDS011;8286;51.274;9.542;2023-04-23T08:04:10;5.00;;;4.50;;
16352;SDS011;8286;51.274;9.542;2023-04-23T08:06:36;4.60;;;4.20;;
16352;SDS011;8286;51.274;9.542;2023-04-23T08:09:03;5.30;;;4.15;;
16352;SDS011;8286;51.274;9.542;2023-04-23T08:11:31;5.60;;;4.40;;
16352;SDS011;8286;51.274;9.542;2023-04-23T08:13:58;4.65;;;4.25;;
16352;SDS011;8286;51.274;9.542;2023-04-23T08:16:25;3.78;;;3.50;;
16352;SDS011;8286;51.274;9.542;2023-04-23T08:18:52;5.03;;;3.47;;
16352;SDS011;8286;51.274;9.542;2023-04-23T08:21:18;5.13;;;3.40;;
16352;SDS011;8286;51.274;9.542;2023-04-23T08:23:46;4.78;;;3.55;;
16352;SDS011;8286;51.274;9.542;2023-04-23T08:26:12;3.60;;;3.35;;
16352;SDS011;8286;51.274;9.542;2023-04-23T08:28:39;3.63;;;3.28;;
16352;SDS011;8286;51.274;9.542;2023-04-23T08:31:07;5.38;;;3.15;;
16352;SDS011;8286;51.274;9.542;2023-04-23T08:33:33;3.67;;;3.15;;
16352;SDS011;8286;51.274;9.542;2023-04-23T08:36:00;4.75;;;3.88;;
16352;SDS011;8286;51.274;9.542;2023-04-23T08:38:27;4.95;;;3.45;;
16352;SDS011;8286;51.274;9.542;2023-04-23T08:40:55;3.35;;;3.05;;
16352;SDS011;8286;51.274;9.542;2023-04-23T08:43:24;5.18;;;3.30;;
16352;SDS011;8286;51.274;9.542;2023-04-23T08:45:55;3.58;;;3.28;;
16352;SDS011;8286;51.274;9.542;2023-04-23T08:48:29;3.90;;;3.35;;
16352;SDS011;8286;51.274;9.542;2023-04-23T08:50:56;5.95;;;3.60;;
16352;SDS011;8286;51.274;9.542;2023-04-23T08:53:24;3.85;;;3.42;;
16352;SDS011;8286;51.274;9.542;2023-04-23T08:55:53;3.20;;;3.00;;
16352;SDS011;8286;51.274;9.542;2023-04-23T08:58:21;4.38;;;3.17;;
16352;SDS011;8286;51.274;9.542;2023-04-23T09:00:48;4.60;;;3.10;;
16352;SDS011;8286;51.274;9.542;2023-04-23T09:03:15;4.20;;;3.22;;
16352;SDS011;8286;51.274;9.542;2023-04-23T09:05:43;3.17;;;2.88;;
16352;SDS011;8286;51.274;9.542;2023-04-23T09:08:10;3.20;;;2.90;;
16352;SDS011;8286;51.274;9.542;2023-04-23T09:10:38;5.78;;;3.55;;
16352;SDS011;8286;51.274;9.542;2023-04-23T09:13:05;4.70;;;3.22;;
16352;SDS011;8286;51.274;9.542;2023-04-23T09:15:32;5.07;;;3.33;;
16352;SDS011;8286;51.274;9.542;2023-04-23T09:18:02;4.68;;;3.78;;
16352;SDS011;8286;51.274;9.542;2023-04-23T09:20:29;3.72;;;3.33;;
16352;SDS011;8286;51.274;9.542;2023-04-23T09:22:57;4.32;;;3.80;;
16352;SDS011;8286;51.274;9.542;2023-04-23T09:25:24;5.63;;;3.90;;
16352;SDS011;8286;51.274;9.542;2023-04-23T09:27:51;3.97;;;3.50;;
16352;SDS011;8286;51.274;9.542;2023-04-23T09:30:17;4.78;;;3.17;;
16352;SDS011;8286;51.274;9.542;2023-04-23T09:32:44;4.68;;;3.60;;
16352;SDS011;8286;51.274;9.542;2023-04-23T09:35:12;3.65;;;3.35;;
16352;SDS011;8286;51.274;9.542;2023-04-23T09:37:40;5.45;;;3.42;;
16352;SDS011;8286;51.274;9.542;2023-04-23T09:40:09;3.90;;;3.55;;
16352;SDS011;8286;51.274;9.542;2023-04-23T09:42:38;4.30;;;3.40;;
16352;SDS011;8286;51.274;9.542;2023-04-23T09:45:06;3.35;;;3.05;;
16352;SDS011;8286;51.274;9.542;2023-04-23T09:47:33;3.97;;;3.58;;
16352;SDS011;8286;51.274;9.542;2023-04-23T09:50:03;3.10;;;2.85;;
16352;SDS011;8286;51.274;9.542;2023-04-23T09:52:31;4.72;;;3.10;;
16352;SDS011;8286;51.274;9.542;2023-04-23T09:55:00;3.60;;;3.30;;
16352;SDS011;8286;51.274;9.542;2023-04-23T09:57:30;3.45;;;3.15;;
16352;SDS011;8286;51.274;9.542;2023-04-23T09:59:57;3.13;;;2.90;;
16352;SDS011;8286;51.274;9.542;2023-04-23T10:02:25;7.15;;;3.60;;
16352;SDS011;8286;51.274;9.542;2023-04-23T10:04:53;3.75;;;3.42;;
16352;SDS011;8286;51.274;9.542;2023-04-23T10:07:20;5.03;;;3.88;;
16352;SDS011;8286;51.274;9.542;2023-04-23T10:09:47;4.20;;;3.60;;
16352;SDS011;8286;51.274;9.542;2023-04-23T10:12:14;3.58;;;3.28;;
16352;SDS011;8286;51.274;9.542;2023-04-23T10:14:42;3.38;;;3.08;;
16352;SDS011;8286;51.274;9.542;2023-04-23T10:17:09;3.13;;;2.92;;
16352;SDS011;8286;51.274;9.542;2023-04-23T10:19:35;4.38;;;3.00;;
16352;SDS011;8286;51.274;9.542;2023-04-23T10:22:05;3.55;;;3.25;;
16352;SDS011;8286;51.274;9.542;2023-04-23T10:24:34;3.10;;;2.90;;
16352;SDS011;8286;51.274;9.542;2023-04-23T10:27:05;2.60;;;2.40;;
16352;SDS011;8286;51.274;9.542;2023-04-23T10:29:36;4.05;;;2.67;;
16352;SDS011;8286;51.274;9.542;2023-04-23T10:32:05;5.05;;;3.40;;
16352;SDS011;8286;51.274;9.542;2023-04-23T10:34:32;3.00;;;2.72;;
16352;SDS011;8286;51.274;9.542;2023-04-23T10:36:59;3.42;;;3.00;;
16352;SDS011;8286;51.274;9.542;2023-04-23T10:39:26;2.83;;;2.60;;
16352;SDS011;8286;51.274;9.542;2023-04-23T10:41:53;4.78;;;2.53;;
16352;SDS011;8286;51.274;9.542;2023-04-23T10:44:31;3.67;;;2.50;;
16352;SDS011;8286;51.274;9.542;2023-04-23T10:46:58;2.45;;;2.30;;
16352;SDS011;8286;51.274;9.542;2023-04-23T10:49:29;4.07;;;2.88;;
16352;SDS011;8286;51.274;9.542;2023-04-23T10:51:57;2.80;;;2.60;;
16352;SDS011;8286;51.274;9.542;2023-04-23T10:54:27;3.20;;;2.72;;
16352;SDS011;8286;51.274;9.542;2023-04-23T10:56:56;2.45;;;2.30;;
16352;SDS011;8286;51.274;9.542;2023-04-23T10:59:24;3.00;;;2.80;;
16352;SDS011;8286;51.274;9.542;2023-04-23T11:01:51;3.25;;;2.90;;
16352;SDS011;8286;51.274;9.542;2023-04-23T11:04:21;3.03;;;2.67;;
16352;SDS011;8286;51.274;9.542;2023-04-23T11:06:53;2.78;;;2.58;;
16352;SDS011;8286;51.274;9.542;2023-04-23T11:09:27;3.08;;;2.35;;
16352;SDS011;8286;51.274;9.542;2023-04-23T11:12:00;2.50;;;2.30;;
16352;SDS011;8286;51.274;9.542;2023-04-23T11:14:34;2.50;;;2.30;;
16352;SDS011;8286;51.274;9.542;2023-04-23T11:17:02;3.30;;;2.30;;
16352;SDS011;8286;51.274;9.542;2023-04-23T11:19:29;3.05;;;2.35;;
16352;SDS011;8286;51.274;9.542;2023-04-23T11:21:58;2.70;;;2.50;;
16352;SDS011;8286;51.274;9.542;2023-04-23T11:24:26;1.95;;;1.85;;
16352;SDS011;8286;51.274;9.542;2023-04-23T11:26:53;1.83;;;1.73;;
16352;SDS011;8286;51.274;9.542;2023-04-23T11:29:21;3.45;;;2.10;;
16352;SDS011;8286;51.274;9.542;2023-04-23T11:31:48;2.50;;;2.35;;
16352;SDS011;8286;51.274;9.542;2023-04-23T11:34:15;3.17;;;2.25;;
16352;SDS011;8286;51.274;9.542;2023-04-23T11:36:43;2.30;;;2.10;;
16352;SDS011;8286;51.274;9.542;2023-04-23T11:39:12;2.20;;;2.08;;
16352;SDS011;8286;51.274;9.542;2023-04-23T11:41:38;2.22;;;1.80;;
16352;SDS011;8286;51.274;9.542;2023-04-23T11:44:06;2.40;;;2.30;;
16352;SDS011;8286;51.274;9.542;2023-04-23T11:46:33;2.30;;;2.10;;
16352;SDS011;8286;51.274;9.542;2023-04-23T11:49:00;2.47;;;1.90;;
16352;SDS011;8286;51.274;9.542;2023-04-23T11:51:26;2.28;;;2.08;;
16352;SDS011;8286;51.274;9.542;2023-04-23T11:53:53;1.90;;;1.80;;
16352;SDS011;8286;51.274;9.542;2023-04-23T11:56:21;1.77;;;1.67;;
16352;SDS011;8286;51.274;9.542;2023-04-23T11:58:57;1.70;;;1.60;;
16352;SDS011;8286;51.274;9.542;2023-04-23T12:01:24;2.28;;;1.73;;
16352;SDS011;8286;51.274;9.542;2023-04-23T12:03:50;2.67;;;1.50;;
16352;SDS011;8286;51.274;9.542;2023-04-23T12:06:17;2.00;;;1.80;;
16352;SDS011;8286;51.274;9.542;2023-04-23T12:08:45;1.70;;;1.60;;
16352;SDS011;8286;51.274;9.542;2023-04-23T12:11:11;1.90;;;1.65;;
16352;SDS011;8286;51.274;9.542;2023-04-23T12:13:40;2.97;;;1.83;;
16352;SDS011;8286;51.274;9.542;2023-04-23T12:16:07;1.70;;;1.60;;
16352;SDS011;8286;51.274;9.542;2023-04-23T12:18:33;4.80;;;1.60;;
16352;SDS011;8286;51.274;9.542;2023-04-23T12:21:05;2.00;;;1.90;;
16352;SDS011;8286;51.274;9.542;2023-04-23T12:23:32;1.67;;;1.58;;
16352;SDS011;8286;51.274;9.542;2023-04-23T12:26:00;2.25;;;1.77;;
16352;SDS011;8286;51.274;9.542;2023-04-23T12:28:27;2.03;;;1.65;;
16352;SDS011;8286;51.274;9.542;2023-04-23T12:30:59;2.08;;;1.88;;
16352;SDS011;8286;51.274;9.542;2023-04-23T12:33:27;2.03;;;1.92;;
16352;SDS011;8286;51.274;9.542;2023-04-23T12:35:54;2.38;;;1.92;;
16352;SDS011;8286;51.274;9.542;2023-04-23T12:38:21;3.10;;;1.95;;
16352;SDS011;8286;51.274;9.542;2023-04-23T12:40:48;2.22;;;2.13;;
16352;SDS011;8286;51.274;9.542;2023-04-23T12:43:15;4.93;;;2.20;;
16352;SDS011;8286;51.274;9.542;2023-04-23T12:45:42;1.80;;;1.70;;
16352;SDS011;8286;51.274;9.542;2023-04-23T12:48:10;3.40;;;1.90;;
16352;SDS011;8286;51.274;9.542;2023-04-23T12:50:37;1.58;;;1.55;;
16352;SDS011;8286;51.274;9.542;2023-04-23T12:53:03;1.83;;;1.70;;
16352;SDS011;8286;51.274;9.542;2023-04-23T12:55:30;1.60;;;1.50;;
16352;SDS011;8286;51.274;9.542;2023-04-23T12:57:56;3.45;;;1.40;;
16352;SDS011;8286;51.274;9.542;2023-04-23T13:00:23;1.40;;;1.30;;
16352;SDS011;8286;51.274;9.542;2023-04-23T13:02:50;1.35;;;1.25;;
16352;SDS011;8286;51.274;9.542;2023-04-23T13:05:18;1.55;;;1.45;;
16352;SDS011;8286;51.274;9.542;2023-04-23T13:07:44;1.30;;;1.20;;
16352;SDS011;8286;51.274;9.542;2023-04-23T13:10:11;1.20;;;1.10;;
16352;SDS011;8286;51.274;9.542;2023-04-23T13:12:37;1.85;;;1.13;;
16352;SDS011;8286;51.274;9.542;2023-04-23T13:15:05;1.30;;;1.20;;
16352;SDS011;8286;51.274;9.542;2023-04-23T13:17:33;2.40;;;1.30;;
16352;SDS011;8286;51.274;9.542;2023-04-23T13:19:59;1.30;;;1.20;;
16352;SDS011;8286;51.274;9.542;2023-04-23T13:22:27;2.80;;;1.20;;
16352;SDS011;8286;51.274;9.542;2023-04-23T13:24:54;2.10;;;1.30;;
16352;SDS011;8286;51.274;9.542;2023-04-23T13:27:22;3.42;;;1.33;;
16352;SDS011;8286;51.274;9.542;2023-04-23T13:29:49;1.42;;;1.35;;
16352;SDS011;8286;51.274;9.542;2023-04-23T13:32:16;1.40;;;1.30;;
16352;SDS011;8286;51.274;9.542;2023-04-23T13:34:42;1.60;;;1.50;;
16352;SDS011;8286;51.274;9.542;2023-04-23T13:37:09;1.40;;;1.25;;
16352;SDS011;8286;51.274;9.542;2023-04-23T13:39:37;1.77;;;1.33;;
16352;SDS011;8286;51.274;9.542;2023-04-23T13:42:04;2.95;;;1.52;;
16352;SDS011;8286;51.274;9.542;2023-04-23T13:44:30;1.85;;;1.30;;
16352;SDS011;8286;51.274;9.542;2023-04-23T13:46:57;1.63;;;1.50;;
16352;SDS011;8286;51.274;9.542;2023-04-23T13:49:24;3.05;;;1.75;;
16352;SDS011;8286;51.274;9.542;2023-04-23T13:51:50;1.63;;;1.50;;
16352;SDS011;8286;51.274;9.542;2023-04-23T13:54:18;1.90;;;1.80;;
16352;SDS011;8286;51.274;9.542;2023-04-23T13:56:46;1.75;;;1.63;;
16352;SDS011;8286;51.274;9.542;2023-04-23T13:59:12;1.70;;;1.60;;
16352;SDS011;8286;51.274;9.542;2023-04-23T14:01:39;1.60;;;1.50;;
16352;SDS011;8286;51.274;9.542;2023-04-23T14:04:05;1.70;;;1.60;;
16352;SDS011;8286;51.274;9.542;2023-04-23T14:06:32;2.97;;;1.88;;
16352;SDS011;8286;51.274;9.542;2023-04-23T14:08:58;2.25;;;2.08;;
16352;SDS011;8286;51.274;9.542;2023-04-23T14:11:25;5.43;;;1.95;;
16352;SDS011;8286;51.274;9.542;2023-04-23T14:13:54;3.47;;;2.05;;
16352;SDS011;8286;51.274;9.542;2023-04-23T14:16:20;1.85;;;1.45;;
16352;SDS011;8286;51.274;9.542;2023-04-23T14:18:47;2.22;;;1.88;;
16352;SDS011;8286;51.274;9.542;2023-04-23T14:21:13;2.47;;;1.85;;
16352;SDS011;8286;51.274;9.542;2023-04-23T14:23:44;2.45;;;2.22;;
16352;SDS011;8286;51.274;9.542;2023-04-23T14:26:19;3.15;;;1.77;;
16352;SDS011;8286;51.274;9.542;2023-04-23T14:28:49;2.08;;;1.50;;
16352;SDS011;8286;51.274;9.542;2023-04-23T14:31:18;3.17;;;2.10;;
16352;SDS011;8286;51.274;9.542;2023-04-23T14:33:45;4.15;;;1.90;;
16352;SDS011;8286;51.274;9.542;2023-04-23T14:36:11;2.67;;;1.67;;
16352;SDS011;8286;51.274;9.542;2023-04-23T14:38:38;2.15;;;1.67;;
16352;SDS011;8286;51.274;9.542;2023-04-23T14:41:04;1.80;;;1.70;;
16352;SDS011;8286;51.274;9.542;2023-04-23T14:43:31;2.95;;;1.80;;
16352;SDS011;8286;51.274;9.542;2023-04-23T14:45:58;1.98;;;1.88;;
16352;SDS011;8286;51.274;9.542;2023-04-23T14:48:26;2.17;;;1.90;;
16352;SDS011;8286;51.274;9.542;2023-04-23T14:50:53;1.67;;;1.60;;
16352;SDS011;8286;51.274;9.542;2023-04-23T14:53:20;2.70;;;2.00;;
16352;SDS011;8286;51.274;9.542;2023-04-23T14:55:46;2.05;;;1.67;;
16352;SDS011;8286;51.274;9.542;2023-04-23T14:58:13;2.28;;;1.90;;
16352;SDS011;8286;51.274;9.542;2023-04-23T15:00:39;2.00;;;1.80;;